Flight Track Log - Related Links

Times and Time Zones

All times are in EDT time to prevent confusion due to time zone crossing. See the SWA1031 flight status page for this flight to view local times or setup timezone preferences in your user account.

Time Position Orientation Groundspeed Altitude Reporting Facility
EDT Latitude Longitude Course Direction KTS MPH feet Rate Location/Type
Wed 04:53:04 PM 34.0789 -117.6894 295° West 204 235 4,000  Level Los Angeles Center
Wed 04:54:06 PM 34.1186 -117.7511 308° West 220 253 7,000 2,338 Climbing Los Angeles Center
Wed 04:55:20 PM 34.1639 -117.8244 307° West 251 289 9,300 2,763 Climbing Los Angeles Center
Wed 04:56:25 PM 34.2258 -117.9239 307° West 305 351 13,400 3,290 Climbing Los Angeles Center
Wed 04:57:24 PM 34.3131 -117.9078 North 312 359 16,100 1,785 Climbing Los Angeles Center
Wed 04:58:26 PM 34.3539 -117.8231 60° Northeast 363 418 17,000 1,392 Climbing Los Angeles Center
Wed 04:59:29 PM 34.4133 -117.7014 59° Northeast 393 452 19,000 1,314 Climbing Los Angeles Center
Wed 05:00:43 PM 34.4961 -117.5750 52° Northeast 405 466 20,000 1,297 Climbing Los Angeles Center
Wed 05:01:57 PM 34.5817 -117.4475 51° Northeast 409 471 22,200 1,752 Climbing Los Angeles Center
Wed 05:03:00 PM 34.6703 -117.3153 51° Northeast 422 486 24,000 1,344 Climbing Los Angeles Center
Wed 05:04:02 PM 34.7450 -117.2036 51° Northeast 426 490 25,000 1,452 Climbing Los Angeles Center
Wed 05:05:04 PM 34.8361 -117.0658 51° Northeast 437 503 27,000 1,694 Climbing Los Angeles Center
Wed 05:06:06 PM 34.9158 -116.9475 51° Northeast 450 518 28,500 1,452 Climbing Los Angeles Center
Wed 05:07:08 PM 34.9958 -116.8256 51° Northeast 461 531 30,000 1,694 Climbing Los Angeles Center
Wed 05:08:10 PM 35.0769 -116.7039 51° Northeast 463 533 32,000 1,694 Climbing Los Angeles Center
Wed 05:09:12 PM 35.1567 -116.5828 51° Northeast 460 529 33,500 1,613 Climbing Los Angeles Center
Wed 05:11:16 PM 35.3258 -116.3292 51° Northeast 429 494 37,000 1,129 Climbing Los Angeles Center
Wed 05:12:18 PM 35.3844 -116.2378 52° Northeast 427 491 37,000  Level Los Angeles Center
Wed 05:13:21 PM 35.4719 -116.1025 52° Northeast 425 489 37,000  Level Los Angeles Center
Wed 05:14:23 PM 35.5464 -115.9903 51° Northeast 425 489 37,000  Level Los Angeles Center
Wed 05:15:25 PM 35.6281 -115.8658 51° Northeast 425 489 37,000  Level Los Angeles Center
Wed 05:16:27 PM 35.7014 -115.7519 52° Northeast 425 489 37,000  Level Los Angeles Center
Wed 05:17:29 PM 35.7744 -115.6369 52° Northeast 427 491 37,000  Level Los Angeles Center
Wed 05:18:43 PM 35.8622 -115.5025 51° Northeast 423 487 37,000  Level Los Angeles Center
Wed 05:19:46 PM 35.9500 -115.3642 52° Northeast 431 496 37,000  Level Los Angeles Center
Wed 05:20:48 PM 36.0228 -115.2517 51° Northeast 424 488 37,000  Level Los Angeles Center
Wed 05:21:50 PM 36.0894 -115.1281 56° Northeast 433 498 37,000  Level Los Angeles Center
Wed 05:23:04 PM 36.1433 -114.9553 69° East 451 519 37,000  Level Los Angeles Center
Wed 05:24:07 PM 36.1969 -114.7792 69° East 456 525 37,000  Level Los Angeles Center
Wed 05:25:09 PM 36.2414 -114.6333 69° East 455 524 37,000  Level Los Angeles Center
Wed 05:26:11 PM 36.2769 -114.5150 70° East 458 527 37,000  Level Los Angeles Center
Wed 05:27:13 PM 36.3297 -114.3422 69° East 451 519 37,000  Level Los Angeles Center
Wed 05:28:15 PM 36.3733 -114.1967 70° East 451 519 37,000  Level Los Angeles Center
Wed 05:29:17 PM 36.4258 -114.0206 70° East 453 521 37,000  Level Los Angeles Center
Wed 05:30:20 PM 36.4703 -113.8719 70° East 457 526 37,000  Level Los Angeles Center
Wed 05:31:34 PM 36.5153 -113.7194 70° East 457 526 37,000  Level Los Angeles Center
Wed 05:32:36 PM 36.5661 -113.5436 70° East 454 522 37,000  Level Los Angeles Center
Wed 05:33:38 PM 36.6103 -113.3950 70° East 457 526 37,000  Level Los Angeles Center
Wed 05:34:40 PM 36.6531 -113.2494 70° East 453 521 37,000  Level Los Angeles Center
Wed 05:35:43 PM 36.7033 -113.0744 70° East 450 518 37,000  Level Los Angeles Center
Wed 05:36:45 PM 36.7453 -112.9272 70° East 452 520 37,000  Level Los Angeles Center
Wed 05:37:47 PM 36.7881 -112.7814 70° East 452 520 37,000  Level Los Angeles Center
Wed 05:38:49 PM 36.8300 -112.6331 71° East 453 521 37,000  Level Los Angeles Center
Wed 05:39:51 PM 36.8728 -112.4808 71° East 459 528 37,000  Level Los Angeles Center
Wed 05:40:53 PM 36.9233 -112.2997 71° East 463 533 37,000  Level Los Angeles Center
Wed 05:41:55 PM 36.9658 -112.1483 71° East 464 534 37,000  Level Los Angeles Center
Wed 05:42:30 PM 36.9903 -112.0575 71° East 464 534 37,000  Level Denver Center
Wed 05:43:32 PM 37.0331 -111.9042 71° East 467 537 37,000  Level Denver Center
Wed 05:44:34 PM 37.0753 -111.7536 71° East 464 534 37,000  Level Denver Center
Wed 05:45:36 PM 37.1172 -111.6006 71° East 466 536 37,000  Level Denver Center
Wed 05:46:38 PM 37.1672 -111.4153 71° East 469 540 37,000  Level Denver Center
Wed 05:47:40 PM 37.2094 -111.2625 71° East 467 537 37,000  Level Denver Center
Wed 05:48:42 PM 37.2492 -111.1083 72° East 466 536 37,000  Level Denver Center
Wed 05:49:44 PM 37.2897 -110.9536 72° East 467 537 37,000  Level Denver Center
Wed 05:50:46 PM 37.3331 -110.7994 70° East 468 539 37,000  Level Denver Center
Wed 05:51:48 PM 37.3744 -110.6453 71° East 467 537 37,000  Level Denver Center
Wed 05:52:50 PM 37.4228 -110.4586 72° East 470 541 37,000  Level Denver Center
Wed 05:53:52 PM 37.4650 -110.3014 71° East 475 547 37,000  Level Denver Center
Wed 05:54:54 PM 37.5081 -110.1356 72° East 473 544 37,000  Level Denver Center
Wed 05:55:56 PM 37.5472 -109.9842 72° East 473 544 37,000  Level Denver Center
Wed 05:56:58 PM 37.5933 -109.8072 72° East 474 545 37,000  Level Denver Center
Wed 05:58:00 PM 37.6322 -109.6556 72° East 475 547 37,000  Level Denver Center
Wed 05:59:15 PM 37.6858 -109.4514 72° East 478 550 37,000  Level Denver Center
Wed 06:00:17 PM 37.7236 -109.2964 73° East 482 555 37,000  Level Denver Center
Wed 06:01:19 PM 37.7697 -109.1156 72° East 482 555 37,000  Level Denver Center
Wed 06:02:21 PM 37.8086 -108.9583 73° East 488 562 37,000  Level Denver Center
Wed 06:03:23 PM 37.8544 -108.7736 73° East 491 565 37,000  Level Denver Center
Wed 06:04:25 PM 37.8939 -108.6161 72° East 491 565 37,000 97 Level Denver Center
Wed 06:05:27 PM 37.9336 -108.4536 73° East 498 573 37,200 532 Climbing Denver Center
Wed 06:06:29 PM 37.9808 -108.2653 72° East 501 577 38,100 774 Climbing Denver Center
Wed 06:07:31 PM 38.0208 -108.0989 73° East 510 587 38,800 435 Climbing Denver Center
Wed 06:08:33 PM 38.0667 -107.9056 73° East 512 589 39,000 97 Climbing Denver Center
Wed 06:09:35 PM 38.1056 -107.7397 73° East 506 582 39,000  Level Denver Center
Wed 06:10:37 PM 38.1506 -107.5497 73° East 503 579 39,000  Level Denver Center
Wed 06:11:39 PM 38.1892 -107.3864 73° East 506 582 39,000  Level Denver Center
Wed 06:12:41 PM 38.2331 -107.1983 73° East 500 575 39,000  Level Denver Center
Wed 06:13:43 PM 38.2656 -107.0578 74° East 496 571 39,000  Level Denver Center
Wed 06:14:45 PM 38.3128 -106.8519 74° East 503 579 39,000  Level Denver Center
Wed 06:15:47 PM 38.3525 -106.6808 73° East 505 581 39,000  Level Denver Center
Wed 06:16:49 PM 38.3911 -106.5089 74° East 505 581 39,000  Level Denver Center
Wed 06:17:52 PM 38.4289 -106.3350 74° East 509 586 39,000  Level Denver Center
Wed 06:18:53 PM 38.4681 -106.1619 74° East 509 586 39,000  Level Denver Center
Wed 06:19:55 PM 38.5061 -105.9889 74° East 509 586 39,000  Level Denver Center
Wed 06:20:57 PM 38.5522 -105.7747 75° East 510 587 39,000  Level Denver Center
Wed 06:22:00 PM 38.5900 -105.6011 74° East 506 582 39,000  Level Denver Center
Wed 06:23:02 PM 38.6283 -105.4239 74° East 512 589 39,000  Level Denver Center
Wed 06:24:04 PM 38.6661 -105.2458 75° East 517 595 39,000  Level Denver Center
Wed 06:25:06 PM 38.7047 -105.0661 75° East 521 600 39,000  Level Denver Center
Wed 06:26:08 PM 38.7417 -104.8892 75° East 515 593 39,000  Level Denver Center
Wed 06:27:10 PM 38.7864 -104.6786 75° East 520 598 39,000  Level Denver Center
Wed 06:28:12 PM 38.8217 -104.5006 76° East 517 595 39,000  Level Denver Center
Wed 06:29:14 PM 38.8597 -104.3228 75° East 517 595 39,000  Level Denver Center
Wed 06:30:16 PM 38.8953 -104.1467 75° East 511 588 39,000  Level Denver Center
Wed 06:31:18 PM 38.9306 -103.9725 75° East 504 580 39,000  Level Denver Center
Wed 06:32:20 PM 38.9647 -103.7958 76° East 508 585 39,000  Level Denver Center
Wed 06:33:22 PM 39.0000 -103.6203 75° East 506 582 39,000  Level Denver Center
Wed 06:34:24 PM 39.0403 -103.4131 76° East 508 585 39,000  Level Denver Center
Wed 06:35:26 PM 39.0756 -103.2367 76° East 507 583 39,000  Level Denver Center
Wed 06:36:28 PM 39.1089 -103.0589 76° East 508 585 39,000  Level Denver Center
Wed 06:37:30 PM 39.1431 -102.8789 76° East 512 589 39,000  Level Denver Center
Wed 06:38:32 PM 39.1786 -102.6928 76° East 514 592 39,000  Level Denver Center
Wed 06:39:34 PM 39.2092 -102.5194 77° East 516 594 39,000  Level Denver Center
Wed 06:40:36 PM 39.2475 -102.3194 76° East 515 593 39,000  Level Denver Center
Wed 06:41:38 PM 39.2786 -102.1467 77° East 516 594 39,000  Level Denver Center
Wed 06:42:40 PM 39.3153 -101.9456 77° East 516 594 39,000  Level Denver Center
Wed 06:43:42 PM 39.3494 -101.7644 76° East 513 590 39,000  Level Denver Center
Wed 06:44:44 PM 39.3786 -101.5939 77° East 509 586 39,000  Level Denver Center
Wed 06:45:46 PM 39.4142 -101.3964 77° East 506 582 39,000  Level Denver Center
Wed 06:46:48 PM 39.4433 -101.2233 78° East 513 590 39,000  Level Denver Center
Wed 06:47:50 PM 39.4778 -101.0253 77° East 510 587 39,000  Level Denver Center
Wed 06:48:53 PM 39.5081 -100.8517 77° East 517 595 39,000  Level Denver Center
Wed 06:49:55 PM 39.5428 -100.6494 77° East 517 595 39,000  Level Denver Center
Wed 06:50:57 PM 39.5703 -100.4792 78° East 509 586 39,000  Level Denver Center
Wed 06:51:59 PM 39.6033 -100.2847 77° East 500 575 39,000  Level Denver Center
Wed 06:53:01 PM 39.6306 -100.1186 78° East 494 568 39,000  Level Denver Center
Wed 06:54:03 PM 39.6614 -99.9303 78° East 497 572 39,000  Level Denver Center
Wed 06:55:05 PM 39.6897 -99.7550 78° East 496 571 39,000  Level Denver Center
Wed 06:56:07 PM 39.7175 -99.5808 78° East 494 568 39,000  Level Denver Center
Wed 06:57:08 PM 39.7453 -99.4075 78° East 491 565 39,000  Level Denver Center
Wed 06:58:10 PM 39.7781 -99.2008 78° East 489 563 39,000  Level Denver Center
Wed 06:59:12 PM 39.8042 -99.0281 79° East 488 562 39,000  Level Denver Center
Wed 07:00:15 PM 39.8311 -98.8558 78° East 487 560 39,000  Level Denver Center
Wed 07:00:38 PM 39.8408 -98.7883 79° East 484 557 39,000  Level Minneapolis Center
Wed 07:01:40 PM 39.8611 -98.6528 79° East 481 554 39,000  Level Minneapolis Center
Wed 07:02:18 PM 39.8811 -98.5172 79° East 477 549 39,000  Level Denver Center
Wed 07:02:42 PM 39.8903 -98.4514 80° East 476 548 39,000  Level Minneapolis Center
Wed 07:03:44 PM 39.9153 -98.2858 79° East 471 542 39,000  Level Minneapolis Center
Wed 07:04:46 PM 39.9392 -98.1186 79° East 471 542 39,000  Level Minneapolis Center
Wed 07:06:00 PM 39.9678 -97.9150 80° East 475 547 39,000  Level Minneapolis Center
Wed 07:07:02 PM 39.9733 -97.7133 88° East 468 539 39,000  Level Minneapolis Center
Wed 07:08:04 PM 39.9997 -97.5447 78° East 475 547 39,000  Level Minneapolis Center
Wed 07:09:06 PM 40.0300 -97.3794 76° East 473 544 39,000  Level Minneapolis Center
Wed 07:10:08 PM 40.0608 -97.2108 77° East 469 540 39,000  Level Minneapolis Center
Wed 07:11:10 PM 40.0900 -97.0458 77° East 468 539 39,000  Level Minneapolis Center
Wed 07:12:12 PM 40.1194 -96.8817 77° East 467 537 39,000  Level Minneapolis Center
Wed 07:13:14 PM 40.1539 -96.6828 77° East 468 539 39,000  Level Minneapolis Center
Wed 07:14:16 PM 40.1828 -96.5169 77° East 469 540 39,000  Level Minneapolis Center
Wed 07:15:18 PM 40.2114 -96.3531 77° East 466 536 39,000  Level Minneapolis Center
Wed 07:16:20 PM 40.2403 -96.1886 77° East 466 536 39,000  Level Minneapolis Center
Wed 07:17:22 PM 40.2683 -96.0214 78° East 469 540 39,000  Level Minneapolis Center
Wed 07:18:24 PM 40.3025 -95.8183 77° East 475 547 39,000  Level Minneapolis Center
Wed 07:19:38 PM 40.3308 -95.6506 77° East 474 545 39,000  Level Minneapolis Center
Wed 07:20:40 PM 40.3633 -95.4500 78° East 472 543 39,000  Level Minneapolis Center
Wed 07:21:42 PM 40.3911 -95.2817 78° East 474 545 39,000  Level Minneapolis Center
Wed 07:22:44 PM 40.4192 -95.1133 78° East 474 545 39,000  Level Minneapolis Center
Wed 07:23:45 PM 40.4408 -94.9803 78° East 471 542 39,000  Level Minneapolis Center
Wed 07:24:48 PM 40.4764 -94.7458 79° East 470 541 39,000  Level Minneapolis Center
Wed 07:25:50 PM 40.5042 -94.5792 78° East 469 540 39,000  Level Minneapolis Center
Wed 07:26:52 PM 40.5267 -94.4350 78° East 465 535 39,000  Level Minneapolis Center
Wed 07:27:53 PM 40.5556 -94.2392 79° East 460 529 39,000  Level Minneapolis Center
Wed 07:28:55 PM 40.5811 -94.0756 78° East 461 531 39,000  Level Minneapolis Center
Wed 07:29:57 PM 40.6053 -93.9136 79° East 456 525 39,000  Level Minneapolis Center
Wed 07:30:59 PM 40.6297 -93.7503 79° East 456 525 39,000  Level Minneapolis Center
Wed 07:32:01 PM 40.6519 -93.5825 80° East 465 535 39,000  Level Minneapolis Center
Wed 07:33:03 PM 40.6781 -93.4122 79° East 473 544 39,000 -581 Level Minneapolis Center
Wed 07:34:05 PM 40.7067 -93.2114 79° East 470 541 37,800 -1,016 Descending Minneapolis Center
Wed 07:35:07 PM 40.7294 -93.0461 80° East 462 532 36,900 -881 Descending Minneapolis Center
Wed 07:37:02 PM 40.7722 -92.7428 79° East 470 541 35,200 -983 Descending Chicago Center
Wed 07:38:04 PM 40.7992 -92.5414 80° East 466 536 34,000 -1,016 Descending Chicago Center
Wed 07:39:06 PM 40.8219 -92.3706 80° East 472 543 33,100 -968 Descending Chicago Center
Wed 07:40:08 PM 40.8439 -92.2047 80° East 463 533 32,000 -532 Descending Chicago Center
Wed 07:41:10 PM 40.8658 -92.0411 80° East 456 525 32,000  Level Chicago Center
Wed 07:42:12 PM 40.8872 -91.8769 80° East 455 524 32,000  Level Chicago Center
Wed 07:43:15 PM 40.9125 -91.6800 80° East 456 525 32,000  Level Chicago Center
Wed 07:44:17 PM 40.9331 -91.5156 81° East 458 527 32,000 -145 Level Chicago Center
Wed 07:45:19 PM 40.9556 -91.3503 80° East 459 528 31,700 -629 Descending Chicago Center
Wed 07:46:21 PM 40.9733 -91.1875 82° East 461 531 30,700 -1,161 Descending Chicago Center
Wed 07:47:23 PM 40.9953 -91.0206 80° East 460 529 29,300 -2,177 Descending Chicago Center
Wed 07:48:25 PM 41.0181 -90.8258 81° East 448 516 26,200 -2,565 Descending Chicago Center
Wed 07:49:27 PM 41.0381 -90.6661 81° East 442 509 24,000 -1,452 Descending Chicago Center
Wed 07:50:29 PM 41.0558 -90.5083 81° East 435 501 23,200 -871 Descending Chicago Center
Wed 07:51:31 PM 41.0739 -90.3503 81° East 432 497 22,200 -1,016 Descending Chicago Center
Wed 07:52:33 PM 41.0925 -90.1947 81° East 428 493 21,100 -1,065 Descending Chicago Center
Wed 07:53:35 PM 41.1089 -90.0483 82° East 405 466 20,000 -1,008 Descending Chicago Center
Wed 07:54:38 PM 41.1258 -89.9036 81° East 397 457 19,000 -1,104 Descending Chicago Center
Wed 07:55:40 PM 41.1417 -89.7611 82° East 391 450 17,700 -1,935 Descending Chicago Center
Wed 07:56:42 PM 41.1594 -89.5969 82° East 375 432 15,000 -1,790 Descending Chicago Center
Wed 07:57:44 PM 41.1717 -89.4653 83° East 360 414 14,000 -1,016 Descending Chicago Center
Wed 07:58:46 PM 41.2100 -89.3508 66° East 335 386 12,900 -1,048 Descending Chicago Center
Wed 07:59:50 PM 41.2447 -89.2431 67° East 319 367 11,800 -1,048 Descending Chicago Center
Wed 08:00:52 PM 41.2839 -89.1228 67° East 313 360 10,700 -1,210 Descending Chicago Center
Wed 08:01:54 PM 41.3169 -89.0211 67° East 304 350 9,300 -1,392 Descending Chicago Center
Wed 08:02:57 PM 41.3522 -88.9206 65° Northeast 303 349 7,800 -1,152 Descending Chicago Center
Wed 08:03:59 PM 41.3831 -88.8222 67° East 293 337 6,900 -435 Descending Chicago Center
Wed 08:05:01 PM 41.4214 -88.7061 66° East 287 330 6,900 -484 Level Chicago Center
Wed 08:06:03 PM 41.4525 -88.6103 67° East 284 327 5,900 -484 Descending Chicago Center
Wed 08:07:05 PM 41.4786 -88.5147 70° East 278 320 5,900  Level Chicago Center
Wed 08:08:07 PM 41.4975 -88.4169 76° East 275 316 5,900 -339 Level Chicago Center
Wed 08:09:09 PM 41.5164 -88.3178 76° East 275 316 5,200 -484 Descending Chicago Center
Wed 08:10:11 PM 41.5369 -88.2192 74° East 276 318 4,900 -145 Descending Chicago Center
Wed 08:11:13 PM 41.5625 -88.1025 74° East 273 314 4,900  Level Chicago Center
Wed 08:12:15 PM 41.5797 -88.0053 77° East 270 311 4,900  Level Chicago Center
Wed 08:13:17 PM 41.5867 -87.9044 85° East 271 312 4,900 -97 Level Chicago Center
Wed 08:14:19 PM 41.5967 -87.8061 82° East 271 312 4,700 -776 Descending Chicago Center
Wed 08:15:13 PM 41.6500 -87.7333 46° Northeast 266 306 3,400 -1,222 Descending Chicago TRACON
Wed 08:16:07 PM 41.7167 -87.7000 20° North 276 318 2,500 -500 Descending Chicago TRACON
Wed 08:17:01 PM 41.7667 -87.6833 14° North 228 262 2,500 -368 Level Chicago TRACON
Wed 08:18:01 PM 41.8167 -87.7000 346° North 177 204 1,800 -700 Descending Chicago TRACON

Login

Don't have an account? Register now (free) for customized features, flight alerts, and more!